佐賀空港の過去48時間の天気

佐賀空港 (Saga)

現在時刻: 9/19 07:55 JST (9/18 22:55 UTC) 以下の時間は現地時間です。

過去48時間のMETAR気象情報
時間 風向 風速(m/s) 視程 気温(℃) 湿度(%) 気圧(hPa) 天気現象
19 07:00 北東 3 10km以上 21 88 1013
19 06:10 2 10km以上 19 94 1013
18 23:00 2 10km以上 20 94 1014
18 22:00 北北東 2 10km以上 22 83 1014
18 21:00 3 10km以上 22 78 1014
18 20:00 北北東 3 10km以上 21 88 1013
18 19:00 3 10km以上 22 83 1012
18 18:00 4 10km以上 23 78 1012
18 17:00 5 10km以上 26 65 1011
18 16:00 5 10km以上 27 62 1011
18 15:00 6 10km以上 28 66 1011
18 14:00 6 10km以上 28 62 1011
18 13:00 北北東 5 10km以上 28 70 1011
18 12:00 3 10km以上 28 66 1012
18 11:00 北北東 3 10km以上 28 70 1012
18 10:00 北北西 3 10km以上 26 74 1012
18 09:00 北北西 2 10km以上 25 78 1012
18 08:00 不定 1 10km以上 25 83 1011
18 07:00 不定 1 10km以上 23 89 1010
18 06:10 西北西 4 10km以上 23 89 1010
17 23:00 西 8 10km以上 24 89 1006
17 22:00 西 8 10km以上 24 94 1005
17 21:00 西 9 10km以上 24 94 1003
17 20:00 西 10 10km以上 25 89 1001
17 19:00 西 16 10km以上 26 89 996
17 18:00 南西 17 8000m 26 89 993
17 17:15 南南西 18 6000m 25 94 993
17 17:00 21 4000m 25 94 992 弱いしゅう雨 もや
17 16:33 21 4000m 25 94 993 弱いしゅう雨 もや
17 16:25 21 4000m 25 94 993 しゅう雨 もや
17 16:00 20 2000m 25 94 995 強いしゅう雨 もや
17 15:00 15 3500m 26 94 997 しゅう雨 もや
17 14:17 南南東 17 2000m 25 94 997 強いしゅう雨 もや
17 14:00 南南東 15 10km以上 26 89 998 弱いしゅう雨
17 13:00 南南東 12 10km以上 26 89 1001 弱いしゅう雨
17 12:00 南南東 11 10km以上 27 84 1002 弱いしゅう雨
17 11:00 南南東 11 10km以上 27 84 1004 周辺でしゅう雨
17 10:00 南東 10 10km以上 28 79 1004 周辺でしゅう雨
17 09:00 南東 8 10km以上 27 84 1005 周辺でしゅう雨
17 08:00 南東 6 10km以上 26 94 1005
RJFS 182200Z 05005KT 9999 FEW025 21/19 Q1013
RJFS 182110Z 08003KT 9999 FEW030 19/18 Q1013 RMK 1CU030 A2992
RJFS 181400Z 36003KT 320V030 CAVOK 20/19 Q1014
RJFS 181300Z 03004KT CAVOK 22/19 Q1014
RJFS 181200Z 01006KT 9999 FEW030 22/18 Q1014
RJFS 181100Z 03006KT 9999 FEW030 21/19 Q1013
RJFS 181000Z 36006KT 9999 FEW030 22/19 Q1012
RJFS 180900Z 35007KT 9999 FEW030 23/19 Q1012
RJFS 180800Z 35010KT 310V020 9999 FEW030 26/19 Q1011
RJFS 180700Z 35010KT 320V020 9999 FEW030 27/19 Q1011
RJFS 180600Z 01011KT 9999 FEW030 28/21 Q1011
RJFS 180500Z 01011KT 9999 FEW030 28/20 Q1011
RJFS 180400Z 02009KT 350V050 9999 FEW025 BKN030 28/22 Q1011
RJFS 180300Z 36006KT 310V040 9999 FEW020 SCT025 BKN050 28/21 Q1012
RJFS 180200Z 03005KT 330V090 9999 FEW020 SCT035 BKN050 28/22 Q1012
RJFS 180100Z 34006KT 9999 FEW020 SCT030 BKN060 26/21 Q1012
RJFS 180000Z 33004KT 290V010 9999 FEW015 SCT030 BKN050 25/21 Q1012
RJFS 172300Z VRB01KT 9999 FEW010 SCT020 BKN030 25/22 Q1011
RJFS 172200Z VRB01KT 9999 FEW010 SCT020 BKN045 23/21 Q1010
RJFS 172110Z 30007KT 9999 FEW015 SCT045 BKN080 23/21 Q1010 RMK 1CU015 4CU045 7AC080 A2983
RJFS 171400Z 27016KT 9999 FEW010 BKN025 BKN030 24/22 Q1006
RJFS 171300Z 27016KT 9999 FEW008 BKN025 BKN030 24/23 Q1005
RJFS 171200Z 27018KT 9999 FEW015 SCT025 BKN040 24/23 Q1003
RJFS 171100Z 28020KT 9999 FEW015 SCT020 BKN030 25/23 Q1001
RJFS 171000Z 27032G42KT 9999 FEW010 SCT015 BKN025 26/24 Q0996
RJFS 170900Z 23034G47KT 8000 FEW010 SCT020 BKN030 26/24 Q0993
RJFS 170815Z 20035G48KT 6000 FEW010 SCT020 BKN030 25/24 Q0993 RMK 1CU010 3CU020 6CU030 A2933
RJFS 170800Z 19041G52KT 4000 -SHRA BR FEW010 SCT015 BKN025 25/24 Q0992
RJFS 170733Z 19040G55KT 4000 -SHRA BR FEW010 SCT015 BKN020 25/24 Q0993 RMK 1CU010 3CU015 6CU020 A2934 P/FR
RJFS 170725Z 19040G57KT 4000 SHRA BR FEW010 SCT015 BKN020 25/24 Q0993 RMK 2CU010 3CU015 6CU020 A2934 P/FR
RJFS 170700Z 19039G52KT 2000 R29/2000N +SHRA BR FEW008 SCT010 BKN015 25/24 Q0995
RJFS 170600Z 18029G39KT 3500 SHRA BR FEW006 SCT010 BKN015 26/25 Q0997
RJFS 170517Z 15033KT 2000 R29/1400VP2000D +SHRA BR FEW010 SCT015 BKN030 25/24 Q0997 RMK 1CU010 4CU015 7CU030 A2946 P/FR
RJFS 170500Z 15030KT 9999 -SHRA FEW015 SCT020 BKN030 26/24 Q0998
RJFS 170400Z 15024KT 9999 -SHRA FEW015 SCT020 BKN030 26/24 Q1001
RJFS 170300Z 15022KT 9999 -SHRA FEW020 BKN040 27/24 Q1002
RJFS 170200Z 15022KT 9999 VCSH FEW020 BKN040 27/24 Q1004
RJFS 170100Z 14019KT 9999 VCSH FEW020 BKN040 28/24 Q1004
RJFS 170000Z 14016KT 9999 VCSH FEW020 BKN040 BKN/// 27/24 Q1005
RJFS 162300Z 13012KT 9999 FEW020 BKN035 BKN/// 26/25 Q1005